createdAt,value
2022-12-16T00:02:42.742Z,51.80
2022-12-16T00:06:44.663Z,44.47
2022-12-16T00:10:55.214Z,46.67
2022-12-16T00:14:56.950Z,37.67
2022-12-16T00:18:58.745Z,42.53
2022-12-16T00:23:00.588Z,42.83
2022-12-16T00:27:02.838Z,40.77
2022-12-16T00:31:05.102Z,43.97
2022-12-16T00:35:07.142Z,46.07
2022-12-16T00:39:09.417Z,39.17
2022-12-16T00:43:11.281Z,45.67
2022-12-16T00:47:13.479Z,44.00
2022-12-16T00:51:15.243Z,42.93
2022-12-16T00:55:17.378Z,51.70
2022-12-16T00:59:22.042Z,45.93
2022-12-16T01:03:23.962Z,37.00
2022-12-16T01:07:25.810Z,44.30
2022-12-16T01:11:27.577Z,48.03
2022-12-16T01:15:29.400Z,52.90
2022-12-16T01:19:31.528Z,47.53
2022-12-16T01:23:34.103Z,47.90
2022-12-16T01:27:36.252Z,51.83
2022-12-16T01:31:38.327Z,46.00
2022-12-16T01:35:56.312Z,47.03
2022-12-16T01:39:58.340Z,44.80
2022-12-16T01:44:14.891Z,46.93
2022-12-16T01:48:43.938Z,45.93
2022-12-16T01:52:52.947Z,48.07
2022-12-16T01:57:07.348Z,44.53
2022-12-16T02:01:09.182Z,46.73
2022-12-16T02:05:20.465Z,42.90
2022-12-16T02:09:22.327Z,46.03
2022-12-16T02:13:44.404Z,45.63
2022-12-16T02:18:05.829Z,44.50
2022-12-16T02:22:50.527Z,42.67
2022-12-16T02:27:05.398Z,51.97
2022-12-16T02:31:33.501Z,48.17
2022-12-16T02:36:11.809Z,45.17
2022-12-16T02:40:46.267Z,48.17
2022-12-16T02:45:08.692Z,44.33
2022-12-16T02:49:13.420Z,42.70
2022-12-16T02:53:15.425Z,42.60
2022-12-16T02:57:59.195Z,47.77
2022-12-16T03:02:57.524Z,45.03
2022-12-16T03:07:05.873Z,51.17
2022-12-16T03:11:14.847Z,46.97
2022-12-16T03:15:25.897Z,41.07
2022-12-16T03:19:34.814Z,45.40
2022-12-16T03:24:01.653Z,43.00
2022-12-16T03:28:33.959Z,45.77
2022-12-16T03:32:48.698Z,39.50
2022-12-16T03:36:53.911Z,44.73
2022-12-16T03:40:55.651Z,44.03
2022-12-16T03:44:57.399Z,37.83
2022-12-16T03:48:59.177Z,44.67
2022-12-16T03:53:01.725Z,34.60
2022-12-16T03:57:03.707Z,30.97
2022-12-16T04:01:09.477Z,33.33
2022-12-16T04:05:11.408Z,35.60
2022-12-16T04:09:13.384Z,35.90
2022-12-16T04:13:34.243Z,33.63
2022-12-16T04:17:55.055Z,26.80
2022-12-16T04:22:15.297Z,32.20
2022-12-16T04:26:17.063Z,33.13
2022-12-16T04:30:20.031Z,29.57
2022-12-16T04:34:29.388Z,26.17
2022-12-16T04:38:50.030Z,31.17
2022-12-16T04:43:10.163Z,34.43
2022-12-16T04:47:30.268Z,33.40
2022-12-16T04:51:50.350Z,28.27
2022-12-16T04:56:10.718Z,29.10
2022-12-16T05:00:31.985Z,27.97
2022-12-16T05:04:52.058Z,29.00
2022-12-16T05:09:12.456Z,33.30
2022-12-16T05:13:49.336Z,26.63
2022-12-16T05:18:12.063Z,28.77
2022-12-16T05:22:32.161Z,28.20
2022-12-16T05:26:52.954Z,26.60
2022-12-16T05:31:13.440Z,28.00
2022-12-16T05:35:34.116Z,32.37
2022-12-16T05:39:54.259Z,28.30
2022-12-16T05:44:14.777Z,31.00
2022-12-16T05:48:35.213Z,36.73
2022-12-16T05:52:55.792Z,31.53
2022-12-16T05:57:16.328Z,28.80
2022-12-16T06:01:36.618Z,27.83
2022-12-16T06:05:57.343Z,32.43
2022-12-16T06:10:17.749Z,32.93
2022-12-16T06:14:38.001Z,33.27
2022-12-16T06:18:58.330Z,35.97
2022-12-16T06:23:22.529Z,35.27
2022-12-16T06:27:45.745Z,34.50
2022-12-16T06:32:06.160Z,31.17
2022-12-16T06:36:26.802Z,33.10
2022-12-16T06:40:47.238Z,34.57
2022-12-16T06:45:07.512Z,30.17
2022-12-16T06:49:27.620Z,34.90
2022-12-16T06:53:48.124Z,37.07
2022-12-16T06:58:15.697Z,33.17
2022-12-16T07:02:36.533Z,36.90
2022-12-16T07:06:57.225Z,37.93
2022-12-16T07:11:17.745Z,36.23
2022-12-16T07:15:38.157Z,40.13
2022-12-16T07:20:06.152Z,37.40
2022-12-16T07:24:29.968Z,38.57
2022-12-16T07:28:50.192Z,40.90
2022-12-16T07:33:13.640Z,37.13
2022-12-16T07:37:37.378Z,43.97
2022-12-16T07:41:58.258Z,41.70
2022-12-16T07:46:18.782Z,42.47
2022-12-16T07:50:39.487Z,44.37
2022-12-16T07:55:01.459Z,38.60
2022-12-16T07:59:22.020Z,40.87
2022-12-16T08:03:42.423Z,40.60
2022-12-16T08:08:02.539Z,42.50
2022-12-16T08:12:23.073Z,47.70
2022-12-16T08:16:43.477Z,42.60
2022-12-16T08:21:04.201Z,47.27
2022-12-16T08:25:27.699Z,43.60
2022-12-16T08:29:47.956Z,45.80
2022-12-16T08:34:08.333Z,52.30
2022-12-16T08:38:28.563Z,51.37
2022-12-16T08:42:49.539Z,50.07
2022-12-16T08:47:09.913Z,47.20
2022-12-16T08:51:30.620Z,50.40
2022-12-16T08:55:51.134Z,43.43
2022-12-16T09:00:16.094Z,45.43
2022-12-16T09:04:36.200Z,44.00
2022-12-16T09:08:56.785Z,42.03
2022-12-16T09:13:31.701Z,45.70
2022-12-16T09:17:52.373Z,50.70
2022-12-16T09:22:13.306Z,45.60
2022-12-16T09:26:33.831Z,41.17
2022-12-16T09:30:54.358Z,47.27
2022-12-16T09:35:16.021Z,51.30
2022-12-16T09:39:36.476Z,45.63
2022-12-16T09:44:40.973Z,48.07
2022-12-16T09:49:09.867Z,44.53
2022-12-16T09:53:38.027Z,49.07
2022-12-16T09:57:58.189Z,41.47
2022-12-16T10:02:19.090Z,42.43
2022-12-16T10:07:03.525Z,41.50
2022-12-16T10:11:32.621Z,43.40
2022-12-16T10:16:17.014Z,44.17
2022-12-16T10:21:00.142Z,46.10
2022-12-16T10:25:36.752Z,46.63
2022-12-16T10:30:00.871Z,49.03
2022-12-16T10:34:21.339Z,51.37
2022-12-16T10:38:44.760Z,48.43
2022-12-16T10:43:24.326Z,45.53
2022-12-16T10:47:44.702Z,43.50
2022-12-16T10:52:08.917Z,48.53
2022-12-16T10:57:16.454Z,45.43
2022-12-16T11:01:42.562Z,51.10
2022-12-16T11:06:03.405Z,48.17
2022-12-16T11:11:03.251Z,46.77
2022-12-16T11:15:47.381Z,47.40
2022-12-16T11:20:08.820Z,48.03
2022-12-16T11:24:37.545Z,45.80
2022-12-16T11:29:00.386Z,43.00
2022-12-16T11:33:43.212Z,45.90
2022-12-16T11:38:03.702Z,45.33
2022-12-16T11:42:25.000Z,48.70
2022-12-16T11:46:46.562Z,52.33
2022-12-16T11:51:13.490Z,48.13
2022-12-16T11:56:05.400Z,51.63
2022-12-16T12:00:23.146Z,42.57
2022-12-16T12:04:43.592Z,48.67
2022-12-16T12:09:29.393Z,46.63
2022-12-16T12:14:05.364Z,43.97
2022-12-16T12:19:00.779Z,46.87
2022-12-16T12:23:26.523Z,42.67
2022-12-16T12:27:57.640Z,42.77
2022-12-16T12:32:51.912Z,43.97
2022-12-16T12:37:38.812Z,50.23
2022-12-16T12:42:30.141Z,43.70
2022-12-16T12:47:13.742Z,47.37
2022-12-16T12:52:29.591Z,45.67
2022-12-16T12:57:11.135Z,45.50
2022-12-16T13:01:31.283Z,47.63
2022-12-16T13:05:52.692Z,45.53
2022-12-16T13:10:44.235Z,47.70
2022-12-16T13:15:12.733Z,42.97
2022-12-16T13:19:48.205Z,45.23
2022-12-16T13:24:08.578Z,45.43
2022-12-16T13:28:43.512Z,47.30
2022-12-16T13:33:17.730Z,52.37
2022-12-16T13:37:44.365Z,46.20
2022-12-16T13:42:07.444Z,45.17
2022-12-16T13:46:33.740Z,47.83
2022-12-16T13:51:23.488Z,47.03
2022-12-16T13:56:04.436Z,47.83
2022-12-16T14:00:38.400Z,49.87
2022-12-16T14:05:03.841Z,44.93
2022-12-16T14:09:24.261Z,53.40
2022-12-16T14:14:03.236Z,50.50
2022-12-16T14:18:43.519Z,50.37
2022-12-16T14:23:57.736Z,44.47
2022-12-16T14:28:19.036Z,46.00
2022-12-16T14:32:45.706Z,49.80
2022-12-16T14:37:13.775Z,54.67
2022-12-16T14:41:40.178Z,46.97
2022-12-16T14:46:00.346Z,48.40
2022-12-16T14:50:20.863Z,46.60
2022-12-16T14:54:58.248Z,49.03
2022-12-16T14:59:35.255Z,42.03
2022-12-16T15:03:59.311Z,46.47
2022-12-16T15:08:19.904Z,48.20
2022-12-16T15:12:42.925Z,55.23
2022-12-16T15:17:03.584Z,50.00
2022-12-16T15:21:25.387Z,48.27
2022-12-16T15:25:45.908Z,47.07
2022-12-16T15:30:06.207Z,47.80
2022-12-16T15:35:06.020Z,49.10
2022-12-16T15:39:50.629Z,52.43
2022-12-16T15:44:10.991Z,54.33
2022-12-16T15:48:48.415Z,52.07
2022-12-16T15:53:29.231Z,54.17
2022-12-16T15:57:53.978Z,57.17
2022-12-16T16:02:14.762Z,54.43
2022-12-16T16:06:43.704Z,59.87
2022-12-16T16:11:05.702Z,57.37
2022-12-16T16:15:31.386Z,55.77
2022-12-16T16:19:51.968Z,54.20
2022-12-16T16:24:12.247Z,57.40
2022-12-16T16:28:32.976Z,60.33
2022-12-16T16:32:55.348Z,60.30
2022-12-16T16:37:16.380Z,55.33
2022-12-16T16:41:38.120Z,51.83
2022-12-16T16:45:58.569Z,54.00
2022-12-16T16:50:19.629Z,53.67
2022-12-16T16:54:40.307Z,50.80
2022-12-16T16:59:01.065Z,56.27
2022-12-16T17:03:21.582Z,52.67
2022-12-16T17:07:42.172Z,55.00
2022-12-16T17:12:02.745Z,55.77
2022-12-16T17:16:23.694Z,52.93
2022-12-16T17:20:44.143Z,53.67
2022-12-16T17:25:15.300Z,53.03
2022-12-16T17:29:42.840Z,50.50
2022-12-16T17:34:05.621Z,53.83
2022-12-16T17:38:27.784Z,54.73
2022-12-16T17:42:50.438Z,52.60
2022-12-16T17:47:10.671Z,52.00
2022-12-16T17:51:31.295Z,52.23
2022-12-16T17:55:52.808Z,52.10
2022-12-16T18:00:13.105Z,51.17
2022-12-16T18:04:34.385Z,49.07
2022-12-16T18:08:54.630Z,48.93
2022-12-16T18:13:14.999Z,45.33
2022-12-16T18:17:35.664Z,49.53
2022-12-16T18:21:55.970Z,43.33
2022-12-16T18:26:18.635Z,49.37
2022-12-16T18:30:39.477Z,46.07
2022-12-16T18:34:59.956Z,45.67
2022-12-16T18:39:20.240Z,44.33
2022-12-16T18:43:43.148Z,46.87
2022-12-16T18:48:03.260Z,47.17
2022-12-16T18:52:27.009Z,52.00
2022-12-16T18:56:47.391Z,45.23
2022-12-16T19:01:24.868Z,49.27
2022-12-16T19:05:45.410Z,47.73
2022-12-16T19:10:06.120Z,48.83
2022-12-16T19:14:26.384Z,47.10
2022-12-16T19:18:46.802Z,46.33
2022-12-16T19:23:10.489Z,46.00
2022-12-16T19:27:33.909Z,45.17
2022-12-16T19:31:54.185Z,45.20
2022-12-16T19:36:16.410Z,44.67
2022-12-16T19:40:59.257Z,43.33
2022-12-16T19:45:19.678Z,46.77
2022-12-16T19:49:44.157Z,46.03
2022-12-16T19:54:05.329Z,50.10
2022-12-16T19:58:25.861Z,43.23
2022-12-16T20:02:46.603Z,42.57
2022-12-16T20:07:07.240Z,47.57
2022-12-16T20:11:28.148Z,48.47
2022-12-16T20:15:48.312Z,46.87
2022-12-16T20:20:08.328Z,47.13
2022-12-16T20:24:33.115Z,44.40
2022-12-16T20:28:53.410Z,50.40
2022-12-16T20:33:23.137Z,47.97
2022-12-16T20:37:43.748Z,50.30
2022-12-16T20:42:04.524Z,44.33
2022-12-16T20:46:24.859Z,48.87
2022-12-16T20:50:45.681Z,49.27
2022-12-16T20:55:06.321Z,44.87
2022-12-16T20:59:26.692Z,47.27
2022-12-16T21:03:47.479Z,44.07
2022-12-16T21:08:09.407Z,50.53
2022-12-16T21:12:29.808Z,40.57
2022-12-16T21:16:51.631Z,43.03
2022-12-16T21:21:12.980Z,48.10
2022-12-16T21:25:33.797Z,48.83
2022-12-16T21:29:54.132Z,46.53
2022-12-16T21:34:16.673Z,45.37
2022-12-16T21:38:37.061Z,46.70
2022-12-16T21:42:57.607Z,49.87
2022-12-16T21:47:18.097Z,49.83
2022-12-16T21:51:38.724Z,43.40
2022-12-16T21:55:59.045Z,43.60
2022-12-16T22:00:19.394Z,48.13
2022-12-16T22:04:39.594Z,42.80
2022-12-16T22:09:00.942Z,45.07
2022-12-16T22:13:21.317Z,43.53
2022-12-16T22:17:42.109Z,47.37
2022-12-16T22:22:02.790Z,44.97
2022-12-16T22:26:23.005Z,43.00
2022-12-16T22:30:43.798Z,39.60
2022-12-16T22:35:04.598Z,42.33
2022-12-16T22:39:27.410Z,48.47
2022-12-16T22:43:48.685Z,38.60
2022-12-16T22:48:08.728Z,41.17
2022-12-16T22:52:29.768Z,46.87
2022-12-16T22:56:49.879Z,41.27
2022-12-16T23:01:10.567Z,39.67
2022-12-16T23:05:31.002Z,42.40
2022-12-16T23:09:53.200Z,38.47
2022-12-16T23:14:13.479Z,39.47
2022-12-16T23:18:35.060Z,44.70
2022-12-16T23:23:01.581Z,43.27
2022-12-16T23:27:21.782Z,43.03
2022-12-16T23:31:41.975Z,39.77
2022-12-16T23:36:02.389Z,39.97
2022-12-16T23:40:23.412Z,41.40
2022-12-16T23:44:44.073Z,47.03
2022-12-16T23:49:22.469Z,43.17
2022-12-16T23:53:45.875Z,39.00
2022-12-16T23:58:06.455Z,41.60
